<?xml version="1.0" encoding="UTF-8" standalone="no" ?>
<gpx xmlns="http://www.topografix.com/GPX/1/1" xmlns:xsi="http://www.w3.org/2001/XMLSchema-instance" xsi:schemaLocation="http://www.topografix.com/GPX/1/1 http://www.topografix.com/GPX/1/1/gpx.xsd" version="1.1" creator="VisuGPX - https://www.visugpx.com">
  <metadata>
    <name>OMS CHENOVE Marche du vendredi 25 janvier 2013</name>
    <desc><![CDATA[De Couchey à Flavignerot]]></desc>
  </metadata>
  <trk>
    <name><![CDATA[OMS CHENOVE Marche du vendredi 25 janvier 2013_1]]></name>
    <trkseg>
      <trkpt lat="47.25997" lon="4.97885">
        <ele>260.192</ele>
        <time>2013-01-25T09:15:01Z</time>
      </trkpt>
      <trkpt lat="47.26008" lon="4.97878">
        <ele>260.116</ele>
        <time>2013-01-25T09:15:12Z</time>
      </trkpt>
      <trkpt lat="47.26018" lon="4.9785">
        <ele>260.072</ele>
        <time>2013-01-25T09:15:23Z</time>
      </trkpt>
      <trkpt lat="47.26045" lon="4.97845">
        <ele>266.722</ele>
        <time>2013-01-25T09:15:34Z</time>
      </trkpt>
      <trkpt lat="47.2606" lon="4.9784">
        <ele>285.171</ele>
        <time>2013-01-25T09:15:45Z</time>
      </trkpt>
      <trkpt lat="47.26077" lon="4.97827">
        <ele>289.227</ele>
        <time>2013-01-25T09:15:56Z</time>
      </trkpt>
      <trkpt lat="47.26083" lon="4.97813">
        <ele>274.912</ele>
        <time>2013-01-25T09:16:07Z</time>
      </trkpt>
      <trkpt lat="47.26097" lon="4.97807">
        <ele>281.937</ele>
        <time>2013-01-25T09:16:18Z</time>
      </trkpt>
      <trkpt lat="47.26105" lon="4.97802">
        <ele>277.347</ele>
        <time>2013-01-25T09:16:29Z</time>
      </trkpt>
      <trkpt lat="47.2612" lon="4.97793">
        <ele>281.074</ele>
        <time>2013-01-25T09:16:40Z</time>
      </trkpt>
      <trkpt lat="47.26128" lon="4.97777">
        <ele>286.408</ele>
        <time>2013-01-25T09:16:51Z</time>
      </trkpt>
      <trkpt lat="47.26135" lon="4.97758">
        <ele>285.694</ele>
        <time>2013-01-25T09:17:02Z</time>
      </trkpt>
      <trkpt lat="47.26142" lon="4.97737">
        <ele>284.202</ele>
        <time>2013-01-25T09:17:13Z</time>
      </trkpt>
      <trkpt lat="47.26142" lon="4.97722">
        <ele>281.529</ele>
        <time>2013-01-25T09:17:24Z</time>
      </trkpt>
      <trkpt lat="47.26147" lon="4.97707">
        <ele>280.27</ele>
        <time>2013-01-25T09:17:35Z</time>
      </trkpt>
      <trkpt lat="47.26147" lon="4.97683">
        <ele>282.157</ele>
        <time>2013-01-25T09:17:46Z</time>
      </trkpt>
      <trkpt lat="47.26148" lon="4.97663">
        <ele>285.255</ele>
        <time>2013-01-25T09:17:57Z</time>
      </trkpt>
      <trkpt lat="47.26147" lon="4.97648">
        <ele>284.448</ele>
        <time>2013-01-25T09:18:08Z</time>
      </trkpt>
      <trkpt lat="47.26147" lon="4.97637">
        <ele>285.91</ele>
        <time>2013-01-25T09:18:19Z</time>
      </trkpt>
      <trkpt lat="47.26148" lon="4.9761">
        <ele>294.134</ele>
        <time>2013-01-25T09:18:30Z</time>
      </trkpt>
      <trkpt lat="47.26153" lon="4.97587">
        <ele>297.772</ele>
        <time>2013-01-25T09:18:41Z</time>
      </trkpt>
      <trkpt lat="47.26153" lon="4.97567">
        <ele>299.334</ele>
        <time>2013-01-25T09:18:52Z</time>
      </trkpt>
      <trkpt lat="47.26153" lon="4.97545">
        <ele>301.066</ele>
        <time>2013-01-25T09:19:03Z</time>
      </trkpt>
      <trkpt lat="47.26155" lon="4.97525">
        <ele>303.566</ele>
        <time>2013-01-25T09:19:14Z</time>
      </trkpt>
      <trkpt lat="47.26158" lon="4.97502">
        <ele>306.483</ele>
        <time>2013-01-25T09:19:25Z</time>
      </trkpt>
      <trkpt lat="47.2616" lon="4.97488">
        <ele>307.277</ele>
        <time>2013-01-25T09:19:36Z</time>
      </trkpt>
      <trkpt lat="47.26165" lon="4.97467">
        <ele>310.76</ele>
        <time>2013-01-25T09:19:47Z</time>
      </trkpt>
      <trkpt lat="47.26167" lon="4.97448">
        <ele>312.377</ele>
        <time>2013-01-25T09:19:58Z</time>
      </trkpt>
      <trkpt lat="47.26165" lon="4.97425">
        <ele>311.767</ele>
        <time>2013-01-25T09:20:09Z</time>
      </trkpt>
      <trkpt lat="47.26167" lon="4.97407">
        <ele>311.52</ele>
        <time>2013-01-25T09:20:20Z</time>
      </trkpt>
      <trkpt lat="47.26168" lon="4.97385">
        <ele>314.701</ele>
        <time>2013-01-25T09:20:31Z</time>
      </trkpt>
      <trkpt lat="47.2617" lon="4.97363">
        <ele>315.395</ele>
        <time>2013-01-25T09:20:42Z</time>
      </trkpt>
      <trkpt lat="47.26177" lon="4.97343">
        <ele>319.906</ele>
        <time>2013-01-25T09:20:53Z</time>
      </trkpt>
      <trkpt lat="47.26183" lon="4.97325">
        <ele>322.158</ele>
        <time>2013-01-25T09:21:04Z</time>
      </trkpt>
      <trkpt lat="47.26193" lon="4.97313">
        <ele>323.042</ele>
        <time>2013-01-25T09:21:15Z</time>
      </trkpt>
      <trkpt lat="47.262" lon="4.973">
        <ele>323.871</ele>
        <time>2013-01-25T09:21:26Z</time>
      </trkpt>
      <trkpt lat="47.26203" lon="4.97287">
        <ele>324.222</ele>
        <time>2013-01-25T09:21:37Z</time>
      </trkpt>
      <trkpt lat="47.26203" lon="4.97273">
        <ele>324.866</ele>
        <time>2013-01-25T09:21:48Z</time>
      </trkpt>
      <trkpt lat="47.26202" lon="4.97255">
        <ele>325.104</ele>
        <time>2013-01-25T09:21:59Z</time>
      </trkpt>
      <trkpt lat="47.262" lon="4.97237">
        <ele>325.549</ele>
        <time>2013-01-25T09:22:10Z</time>
      </trkpt>
      <trkpt lat="47.262" lon="4.97218">
        <ele>327.191</ele>
        <time>2013-01-25T09:22:21Z</time>
      </trkpt>
      <trkpt lat="47.262" lon="4.97203">
        <ele>326.96</ele>
        <time>2013-01-25T09:22:32Z</time>
      </trkpt>
      <trkpt lat="47.26197" lon="4.97185">
        <ele>327.331</ele>
        <time>2013-01-25T09:22:43Z</time>
      </trkpt>
      <trkpt lat="47.26192" lon="4.9717">
        <ele>327.952</ele>
        <time>2013-01-25T09:22:54Z</time>
      </trkpt>
      <trkpt lat="47.26188" lon="4.97157">
        <ele>328.683</ele>
        <time>2013-01-25T09:23:05Z</time>
      </trkpt>
      <trkpt lat="47.26187" lon="4.97138">
        <ele>329.539</ele>
        <time>2013-01-25T09:23:16Z</time>
      </trkpt>
      <trkpt lat="47.26185" lon="4.97118">
        <ele>326.998</ele>
        <time>2013-01-25T09:23:27Z</time>
      </trkpt>
      <trkpt lat="47.26183" lon="4.97097">
        <ele>328.681</ele>
        <time>2013-01-25T09:23:38Z</time>
      </trkpt>
      <trkpt lat="47.26185" lon="4.97077">
        <ele>328.764</ele>
        <time>2013-01-25T09:23:49Z</time>
      </trkpt>
      <trkpt lat="47.26185" lon="4.97055">
        <ele>329.718</ele>
        <time>2013-01-25T09:24:00Z</time>
      </trkpt>
      <trkpt lat="47.26187" lon="4.97038">
        <ele>328.779</ele>
        <time>2013-01-25T09:24:11Z</time>
      </trkpt>
      <trkpt lat="47.26185" lon="4.97028">
        <ele>329.028</ele>
        <time>2013-01-25T09:24:22Z</time>
      </trkpt>
      <trkpt lat="47.26185" lon="4.97018">
        <ele>328.04</ele>
        <time>2013-01-25T09:24:33Z</time>
      </trkpt>
      <trkpt lat="47.26187" lon="4.97">
        <ele>329.459</ele>
        <time>2013-01-25T09:24:44Z</time>
      </trkpt>
      <trkpt lat="47.2619" lon="4.9698">
        <ele>328.343</ele>
        <time>2013-01-25T09:24:55Z</time>
      </trkpt>
      <trkpt lat="47.26192" lon="4.96958">
        <ele>329.335</ele>
        <time>2013-01-25T09:25:06Z</time>
      </trkpt>
      <trkpt lat="47.26195" lon="4.96935">
        <ele>329.97</ele>
        <time>2013-01-25T09:25:17Z</time>
      </trkpt>
      <trkpt lat="47.26197" lon="4.96913">
        <ele>333.1</ele>
        <time>2013-01-25T09:25:28Z</time>
      </trkpt>
      <trkpt lat="47.26198" lon="4.96892">
        <ele>333.297</ele>
        <time>2013-01-25T09:25:39Z</time>
      </trkpt>
      <trkpt lat="47.262" lon="4.96872">
        <ele>334.97</ele>
        <time>2013-01-25T09:25:50Z</time>
      </trkpt>
      <trkpt lat="47.26203" lon="4.96857">
        <ele>334.918</ele>
        <time>2013-01-25T09:26:01Z</time>
      </trkpt>
      <trkpt lat="47.26203" lon="4.9684">
        <ele>337.137</ele>
        <time>2013-01-25T09:26:12Z</time>
      </trkpt>
      <trkpt lat="47.26205" lon="4.96822">
        <ele>338.706</ele>
        <time>2013-01-25T09:26:23Z</time>
      </trkpt>
      <trkpt lat="47.26208" lon="4.96803">
        <ele>345.6</ele>
        <time>2013-01-25T09:26:34Z</time>
      </trkpt>
      <trkpt lat="47.26208" lon="4.96795">
        <ele>339.538</ele>
        <time>2013-01-25T09:26:45Z</time>
      </trkpt>
      <trkpt lat="47.2621" lon="4.96773">
        <ele>340.674</ele>
        <time>2013-01-25T09:26:56Z</time>
      </trkpt>
      <trkpt lat="47.26212" lon="4.96758">
        <ele>341.989</ele>
        <time>2013-01-25T09:27:07Z</time>
      </trkpt>
      <trkpt lat="47.26213" lon="4.96745">
        <ele>343.37</ele>
        <time>2013-01-25T09:27:18Z</time>
      </trkpt>
      <trkpt lat="47.26217" lon="4.9672">
        <ele>345.724</ele>
        <time>2013-01-25T09:27:29Z</time>
      </trkpt>
      <trkpt lat="47.26218" lon="4.967">
        <ele>345.842</ele>
        <time>2013-01-25T09:27:40Z</time>
      </trkpt>
      <trkpt lat="47.26225" lon="4.9668">
        <ele>350.24</ele>
        <time>2013-01-25T09:27:51Z</time>
      </trkpt>
      <trkpt lat="47.26223" lon="4.96655">
        <ele>353.109</ele>
        <time>2013-01-25T09:28:02Z</time>
      </trkpt>
      <trkpt lat="47.26223" lon="4.96637">
        <ele>353.981</ele>
        <time>2013-01-25T09:28:13Z</time>
      </trkpt>
      <trkpt lat="47.26223" lon="4.96615">
        <ele>355.59</ele>
        <time>2013-01-25T09:28:24Z</time>
      </trkpt>
      <trkpt lat="47.26225" lon="4.96598">
        <ele>357.731</ele>
        <time>2013-01-25T09:28:35Z</time>
      </trkpt>
      <trkpt lat="47.26227" lon="4.96585">
        <ele>358.564</ele>
        <time>2013-01-25T09:28:46Z</time>
      </trkpt>
      <trkpt lat="47.2623" lon="4.96567">
        <ele>358.893</ele>
        <time>2013-01-25T09:28:57Z</time>
      </trkpt>
      <trkpt lat="47.26233" lon="4.9655">
        <ele>359.285</ele>
        <time>2013-01-25T09:29:08Z</time>
      </trkpt>
      <trkpt lat="47.26238" lon="4.96535">
        <ele>359.209</ele>
        <time>2013-01-25T09:29:19Z</time>
      </trkpt>
      <trkpt lat="47.26245" lon="4.96525">
        <ele>361.743</ele>
        <time>2013-01-25T09:29:30Z</time>
      </trkpt>
      <trkpt lat="47.2625" lon="4.9651">
        <ele>362.644</ele>
        <time>2013-01-25T09:29:41Z</time>
      </trkpt>
      <trkpt lat="47.26257" lon="4.96498">
        <ele>366.118</ele>
        <time>2013-01-25T09:29:52Z</time>
      </trkpt>
      <trkpt lat="47.26265" lon="4.96483">
        <ele>368.159</ele>
        <time>2013-01-25T09:30:03Z</time>
      </trkpt>
      <trkpt lat="47.26273" lon="4.96472">
        <ele>369.757</ele>
        <time>2013-01-25T09:30:14Z</time>
      </trkpt>
      <trkpt lat="47.26283" lon="4.96462">
        <ele>369.837</ele>
        <time>2013-01-25T09:30:25Z</time>
      </trkpt>
      <trkpt lat="47.2629" lon="4.96452">
        <ele>370.159</ele>
        <time>2013-01-25T09:30:36Z</time>
      </trkpt>
      <trkpt lat="47.26293" lon="4.96448">
        <ele>370.293</ele>
        <time>2013-01-25T09:30:47Z</time>
      </trkpt>
      <trkpt lat="47.26287" lon="4.9645">
        <ele>369.982</ele>
        <time>2013-01-25T09:30:58Z</time>
      </trkpt>
      <trkpt lat="47.2628" lon="4.96455">
        <ele>368.721</ele>
        <time>2013-01-25T09:31:09Z</time>
      </trkpt>
      <trkpt lat="47.26278" lon="4.96458">
        <ele>368.316</ele>
        <time>2013-01-25T09:31:20Z</time>
      </trkpt>
      <trkpt lat="47.2627" lon="4.96465">
        <ele>366.781</ele>
        <time>2013-01-25T09:31:31Z</time>
      </trkpt>
      <trkpt lat="47.26263" lon="4.96473">
        <ele>367.5</ele>
        <time>2013-01-25T09:31:42Z</time>
      </trkpt>
      <trkpt lat="47.26257" lon="4.96475">
        <ele>365.779</ele>
        <time>2013-01-25T09:31:53Z</time>
      </trkpt>
      <trkpt lat="47.26253" lon="4.96475">
        <ele>366.425</ele>
        <time>2013-01-25T09:32:04Z</time>
      </trkpt>
      <trkpt lat="47.26252" lon="4.96473">
        <ele>365.629</ele>
        <time>2013-01-25T09:32:15Z</time>
      </trkpt>
      <trkpt lat="47.26248" lon="4.96468">
        <ele>365.865</ele>
        <time>2013-01-25T09:32:26Z</time>
      </trkpt>
      <trkpt lat="47.26245" lon="4.96465">
        <ele>366.37</ele>
        <time>2013-01-25T09:32:37Z</time>
      </trkpt>
      <trkpt lat="47.26242" lon="4.9646">
        <ele>367.771</ele>
        <time>2013-01-25T09:32:48Z</time>
      </trkpt>
      <trkpt lat="47.2624" lon="4.96457">
        <ele>368.731</ele>
        <time>2013-01-25T09:32:59Z</time>
      </trkpt>
      <trkpt lat="47.26238" lon="4.96453">
        <ele>370.212</ele>
        <time>2013-01-25T09:33:10Z</time>
      </trkpt>
      <trkpt lat="47.26235" lon="4.96448">
        <ele>371.684</ele>
        <time>2013-01-25T09:33:21Z</time>
      </trkpt>
      <trkpt lat="47.26232" lon="4.96447">
        <ele>373.074</ele>
        <time>2013-01-25T09:33:32Z</time>
      </trkpt>
      <trkpt lat="47.2623" lon="4.9644">
        <ele>376.753</ele>
        <time>2013-01-25T09:33:43Z</time>
      </trkpt>
      <trkpt lat="47.26228" lon="4.96433">
        <ele>377.698</ele>
        <time>2013-01-25T09:33:54Z</time>
      </trkpt>
      <trkpt lat="47.26228" lon="4.96433">
        <ele>377.698</ele>
        <time>2013-01-25T09:34:05Z</time>
      </trkpt>
      <trkpt lat="47.26227" lon="4.96427">
        <ele>379.716</ele>
        <time>2013-01-25T09:34:16Z</time>
      </trkpt>
      <trkpt lat="47.26225" lon="4.96423">
        <ele>379.453</ele>
        <time>2013-01-25T09:34:27Z</time>
      </trkpt>
      <trkpt lat="47.26225" lon="4.96418">
        <ele>379.467</ele>
        <time>2013-01-25T09:34:38Z</time>
      </trkpt>
      <trkpt lat="47.26225" lon="4.96417">
        <ele>379.565</ele>
        <time>2013-01-25T09:34:49Z</time>
      </trkpt>
      <trkpt lat="47.26223" lon="4.96415">
        <ele>380.274</ele>
        <time>2013-01-25T09:35:00Z</time>
      </trkpt>
      <trkpt lat="47.26223" lon="4.96412">
        <ele>380.221</ele>
        <time>2013-01-25T09:35:11Z</time>
      </trkpt>
      <trkpt lat="47.26222" lon="4.9641">
        <ele>381.435</ele>
        <time>2013-01-25T09:35:22Z</time>
      </trkpt>
      <trkpt lat="47.2622" lon="4.96407">
        <ele>381.462</ele>
        <time>2013-01-25T09:35:33Z</time>
      </trkpt>
      <trkpt lat="47.26217" lon="4.96402">
        <ele>382.986</ele>
        <time>2013-01-25T09:35:44Z</time>
      </trkpt>
      <trkpt lat="47.26217" lon="4.96402">
        <ele>383.186</ele>
        <time>2013-01-25T09:35:55Z</time>
      </trkpt>
      <trkpt lat="47.26217" lon="4.96402">
        <ele>383.186</ele>
        <time>2013-01-25T09:36:06Z</time>
      </trkpt>
      <trkpt lat="47.26215" lon="4.96397">
        <ele>384.307</ele>
        <time>2013-01-25T09:36:17Z</time>
      </trkpt>
      <trkpt lat="47.26213" lon="4.96395">
        <ele>385.9</ele>
        <time>2013-01-25T09:36:28Z</time>
      </trkpt>
      <trkpt lat="47.2621" lon="4.96388">
        <ele>388.254</ele>
        <time>2013-01-25T09:36:39Z</time>
      </trkpt>
      <trkpt lat="47.26208" lon="4.96383">
        <ele>388.3</ele>
        <time>2013-01-25T09:36:50Z</time>
      </trkpt>
      <trkpt lat="47.26205" lon="4.96378">
        <ele>391.608</ele>
        <time>2013-01-25T09:37:01Z</time>
      </trkpt>
      <trkpt lat="47.26205" lon="4.96377">
        <ele>389.1</ele>
        <time>2013-01-25T09:37:12Z</time>
      </trkpt>
      <trkpt lat="47.26202" lon="4.96373">
        <ele>394.101</ele>
        <time>2013-01-25T09:37:23Z</time>
      </trkpt>
      <trkpt lat="47.26202" lon="4.96373">
        <ele>394.101</ele>
        <time>2013-01-25T09:37:34Z</time>
      </trkpt>
      <trkpt lat="47.26198" lon="4.96367">
        <ele>389.3</ele>
        <time>2013-01-25T09:37:45Z</time>
      </trkpt>
      <trkpt lat="47.26195" lon="4.96357">
        <ele>390.7</ele>
        <time>2013-01-25T09:37:56Z</time>
      </trkpt>
      <trkpt lat="47.26193" lon="4.96355">
        <ele>391.8</ele>
        <time>2013-01-25T09:38:07Z</time>
      </trkpt>
      <trkpt lat="47.26188" lon="4.96343">
        <ele>398.3</ele>
        <time>2013-01-25T09:38:18Z</time>
      </trkpt>
      <trkpt lat="47.26185" lon="4.96335">
        <ele>399.965</ele>
        <time>2013-01-25T09:38:29Z</time>
      </trkpt>
      <trkpt lat="47.2618" lon="4.96327">
        <ele>400.601</ele>
        <time>2013-01-25T09:38:40Z</time>
      </trkpt>
      <trkpt lat="47.26177" lon="4.9632">
        <ele>409.1</ele>
        <time>2013-01-25T09:38:51Z</time>
      </trkpt>
      <trkpt lat="47.26175" lon="4.96317">
        <ele>402.125</ele>
        <time>2013-01-25T09:39:02Z</time>
      </trkpt>
      <trkpt lat="47.26175" lon="4.96317">
        <ele>402.949</ele>
        <time>2013-01-25T09:39:13Z</time>
      </trkpt>
      <trkpt lat="47.26175" lon="4.96317">
        <ele>410</ele>
        <time>2013-01-25T09:39:24Z</time>
      </trkpt>
      <trkpt lat="47.26175" lon="4.96317">
        <ele>410</ele>
        <time>2013-01-25T09:39:35Z</time>
      </trkpt>
      <trkpt lat="47.26175" lon="4.96315">
        <ele>403.587</ele>
        <time>2013-01-25T09:39:46Z</time>
      </trkpt>
      <trkpt lat="47.26173" lon="4.96312">
        <ele>404.284</ele>
        <time>2013-01-25T09:39:57Z</time>
      </trkpt>
      <trkpt lat="47.26172" lon="4.96308">
        <ele>405.44</ele>
        <time>2013-01-25T09:40:08Z</time>
      </trkpt>
      <trkpt lat="47.2617" lon="4.96307">
        <ele>406.551</ele>
        <time>2013-01-25T09:40:19Z</time>
      </trkpt>
      <trkpt lat="47.26168" lon="4.96302">
        <ele>406.124</ele>
        <time>2013-01-25T09:40:30Z</time>
      </trkpt>
      <trkpt lat="47.26168" lon="4.96297">
        <ele>407.612</ele>
        <time>2013-01-25T09:40:41Z</time>
      </trkpt>
      <trkpt lat="47.26168" lon="4.96295">
        <ele>408.858</ele>
        <time>2013-01-25T09:40:52Z</time>
      </trkpt>
      <trkpt lat="47.26167" lon="4.9629">
        <ele>408.84</ele>
        <time>2013-01-25T09:41:03Z</time>
      </trkpt>
      <trkpt lat="47.26167" lon="4.96285">
        <ele>409.59</ele>
        <time>2013-01-25T09:41:14Z</time>
      </trkpt>
      <trkpt lat="47.26167" lon="4.9628">
        <ele>409.569</ele>
        <time>2013-01-25T09:41:25Z</time>
      </trkpt>
      <trkpt lat="47.26165" lon="4.96277">
        <ele>410.696</ele>
        <time>2013-01-25T09:41:36Z</time>
      </trkpt>
      <trkpt lat="47.26165" lon="4.96265">
        <ele>412.206</ele>
        <time>2013-01-25T09:41:47Z</time>
      </trkpt>
      <trkpt lat="47.26165" lon="4.96245">
        <ele>414.361</ele>
        <time>2013-01-25T09:41:58Z</time>
      </trkpt>
      <trkpt lat="47.26163" lon="4.96238">
        <ele>415.457</ele>
        <time>2013-01-25T09:42:09Z</time>
      </trkpt>
      <trkpt lat="47.26163" lon="4.96235">
        <ele>428.6</ele>
        <time>2013-01-25T09:42:20Z</time>
      </trkpt>
      <trkpt lat="47.26163" lon="4.96233">
        <ele>429</ele>
        <time>2013-01-25T09:42:31Z</time>
      </trkpt>
      <trkpt lat="47.26162" lon="4.96222">
        <ele>431.1</ele>
        <time>2013-01-25T09:42:42Z</time>
      </trkpt>
      <trkpt lat="47.26162" lon="4.96212">
        <ele>433.4</ele>
        <time>2013-01-25T09:42:53Z</time>
      </trkpt>
      <trkpt lat="47.2616" lon="4.96193">
        <ele>436.8</ele>
        <time>2013-01-25T09:43:04Z</time>
      </trkpt>
      <trkpt lat="47.26158" lon="4.96187">
        <ele>419.048</ele>
        <time>2013-01-25T09:43:15Z</time>
      </trkpt>
      <trkpt lat="47.26157" lon="4.96178">
        <ele>438</ele>
        <time>2013-01-25T09:43:26Z</time>
      </trkpt>
      <trkpt lat="47.26152" lon="4.96163">
        <ele>420.547</ele>
        <time>2013-01-25T09:43:37Z</time>
      </trkpt>
      <trkpt lat="47.2615" lon="4.96158">
        <ele>420.971</ele>
        <time>2013-01-25T09:43:48Z</time>
      </trkpt>
      <trkpt lat="47.2615" lon="4.96157">
        <ele>421.304</ele>
        <time>2013-01-25T09:43:59Z</time>
      </trkpt>
      <trkpt lat="47.2615" lon="4.96157">
        <ele>438.9</ele>
        <time>2013-01-25T09:44:10Z</time>
      </trkpt>
      <trkpt lat="47.2615" lon="4.96155">
        <ele>421.4</ele>
        <time>2013-01-25T09:44:21Z</time>
      </trkpt>
      <trkpt lat="47.26148" lon="4.96153">
        <ele>421.782</ele>
        <time>2013-01-25T09:44:32Z</time>
      </trkpt>
      <trkpt lat="47.26148" lon="4.96153">
        <ele>421.782</ele>
        <time>2013-01-25T09:44:43Z</time>
      </trkpt>
      <trkpt lat="47.26148" lon="4.96153">
        <ele>438.7</ele>
        <time>2013-01-25T09:44:54Z</time>
      </trkpt>
      <trkpt lat="47.26148" lon="4.96153">
        <ele>421.782</ele>
        <time>2013-01-25T09:45:05Z</time>
      </trkpt>
      <trkpt lat="47.26148" lon="4.96153">
        <ele>438.7</ele>
        <time>2013-01-25T09:45:16Z</time>
      </trkpt>
      <trkpt lat="47.26148" lon="4.96148">
        <ele>421.871</ele>
        <time>2013-01-25T09:45:27Z</time>
      </trkpt>
      <trkpt lat="47.26145" lon="4.96137">
        <ele>424.495</ele>
        <time>2013-01-25T09:45:38Z</time>
      </trkpt>
      <trkpt lat="47.26142" lon="4.96125">
        <ele>438.7</ele>
        <time>2013-01-25T09:45:49Z</time>
      </trkpt>
      <trkpt lat="47.2614" lon="4.9612">
        <ele>425.227</ele>
        <time>2013-01-25T09:46:00Z</time>
      </trkpt>
      <trkpt lat="47.26135" lon="4.96102">
        <ele>423.675</ele>
        <time>2013-01-25T09:46:11Z</time>
      </trkpt>
      <trkpt lat="47.2613" lon="4.96075">
        <ele>444.1</ele>
        <time>2013-01-25T09:46:22Z</time>
      </trkpt>
      <trkpt lat="47.26127" lon="4.9605">
        <ele>427.988</ele>
        <time>2013-01-25T09:46:33Z</time>
      </trkpt>
      <trkpt lat="47.26123" lon="4.9603">
        <ele>431.523</ele>
        <time>2013-01-25T09:46:44Z</time>
      </trkpt>
      <trkpt lat="47.26122" lon="4.9601">
        <ele>433.611</ele>
        <time>2013-01-25T09:46:55Z</time>
      </trkpt>
      <trkpt lat="47.26123" lon="4.95993">
        <ele>449.2</ele>
        <time>2013-01-25T09:47:06Z</time>
      </trkpt>
      <trkpt lat="47.26123" lon="4.9597">
        <ele>436.954</ele>
        <time>2013-01-25T09:47:17Z</time>
      </trkpt>
      <trkpt lat="47.2612" lon="4.95948">
        <ele>437.995</ele>
        <time>2013-01-25T09:47:28Z</time>
      </trkpt>
      <trkpt lat="47.26115" lon="4.95935">
        <ele>440.522</ele>
        <time>2013-01-25T09:47:39Z</time>
      </trkpt>
      <trkpt lat="47.26107" lon="4.95923">
        <ele>451.9</ele>
        <time>2013-01-25T09:47:50Z</time>
      </trkpt>
      <trkpt lat="47.26093" lon="4.9591">
        <ele>443.148</ele>
        <time>2013-01-25T09:48:01Z</time>
      </trkpt>
      <trkpt lat="47.26083" lon="4.959">
        <ele>453.6</ele>
        <time>2013-01-25T09:48:12Z</time>
      </trkpt>
      <trkpt lat="47.26077" lon="4.95895">
        <ele>445.407</ele>
        <time>2013-01-25T09:48:23Z</time>
      </trkpt>
      <trkpt lat="47.26077" lon="4.95893">
        <ele>453.8</ele>
        <time>2013-01-25T09:48:34Z</time>
      </trkpt>
      <trkpt lat="47.26077" lon="4.95893">
        <ele>453.8</ele>
        <time>2013-01-25T09:48:45Z</time>
      </trkpt>
      <trkpt lat="47.26072" lon="4.95888">
        <ele>454</ele>
        <time>2013-01-25T09:48:56Z</time>
      </trkpt>
      <trkpt lat="47.2607" lon="4.95883">
        <ele>443.722</ele>
        <time>2013-01-25T09:49:07Z</time>
      </trkpt>
      <trkpt lat="47.2607" lon="4.95878">
        <ele>454.2</ele>
        <time>2013-01-25T09:49:18Z</time>
      </trkpt>
      <trkpt lat="47.26068" lon="4.95863">
        <ele>445.166</ele>
        <time>2013-01-25T09:49:29Z</time>
      </trkpt>
      <trkpt lat="47.26068" lon="4.95845">
        <ele>446.312</ele>
        <time>2013-01-25T09:49:40Z</time>
      </trkpt>
      <trkpt lat="47.26072" lon="4.95825">
        <ele>447.185</ele>
        <time>2013-01-25T09:49:51Z</time>
      </trkpt>
      <trkpt lat="47.26072" lon="4.95815">
        <ele>455.4</ele>
        <time>2013-01-25T09:50:02Z</time>
      </trkpt>
      <trkpt lat="47.26072" lon="4.95803">
        <ele>448.927</ele>
        <time>2013-01-25T09:50:13Z</time>
      </trkpt>
      <trkpt lat="47.26075" lon="4.95785">
        <ele>455.9</ele>
        <time>2013-01-25T09:50:24Z</time>
      </trkpt>
      <trkpt lat="47.26075" lon="4.95765">
        <ele>456.3</ele>
        <time>2013-01-25T09:50:35Z</time>
      </trkpt>
      <trkpt lat="47.26077" lon="4.9574">
        <ele>456.8</ele>
        <time>2013-01-25T09:50:46Z</time>
      </trkpt>
      <trkpt lat="47.26077" lon="4.95713">
        <ele>457.2</ele>
        <time>2013-01-25T09:50:57Z</time>
      </trkpt>
      <trkpt lat="47.26078" lon="4.95692">
        <ele>457.8</ele>
        <time>2013-01-25T09:51:08Z</time>
      </trkpt>
      <trkpt lat="47.26078" lon="4.95675">
        <ele>457.8</ele>
        <time>2013-01-25T09:51:19Z</time>
      </trkpt>
      <trkpt lat="47.26082" lon="4.9566">
        <ele>458</ele>
        <time>2013-01-25T09:51:30Z</time>
      </trkpt>
      <trkpt lat="47.26082" lon="4.9565">
        <ele>458</ele>
        <time>2013-01-25T09:51:41Z</time>
      </trkpt>
      <trkpt lat="47.26082" lon="4.95627">
        <ele>458.4</ele>
        <time>2013-01-25T09:51:52Z</time>
      </trkpt>
      <trkpt lat="47.26082" lon="4.95612">
        <ele>458.9</ele>
        <time>2013-01-25T09:52:03Z</time>
      </trkpt>
      <trkpt lat="47.26078" lon="4.95593">
        <ele>458.8</ele>
        <time>2013-01-25T09:52:14Z</time>
      </trkpt>
      <trkpt lat="47.26075" lon="4.95578">
        <ele>458.7</ele>
        <time>2013-01-25T09:52:25Z</time>
      </trkpt>
      <trkpt lat="47.26075" lon="4.95562">
        <ele>458.7</ele>
        <time>2013-01-25T09:52:36Z</time>
      </trkpt>
      <trkpt lat="47.26075" lon="4.95553">
        <ele>458.8</ele>
        <time>2013-01-25T09:52:47Z</time>
      </trkpt>
      <trkpt lat="47.26077" lon="4.95535">
        <ele>459.3</ele>
        <time>2013-01-25T09:52:58Z</time>
      </trkpt>
      <trkpt lat="47.26078" lon="4.95523">
        <ele>459.6</ele>
        <time>2013-01-25T09:53:09Z</time>
      </trkpt>
      <trkpt lat="47.26077" lon="4.95503">
        <ele>463.086</ele>
        <time>2013-01-25T09:53:20Z</time>
      </trkpt>
      <trkpt lat="47.26073" lon="4.95488">
        <ele>459.4</ele>
        <time>2013-01-25T09:53:31Z</time>
      </trkpt>
      <trkpt lat="47.26073" lon="4.95468">
        <ele>459.6</ele>
        <time>2013-01-25T09:53:42Z</time>
      </trkpt>
      <trkpt lat="47.26072" lon="4.95448">
        <ele>459.2</ele>
        <time>2013-01-25T09:53:53Z</time>
      </trkpt>
      <trkpt lat="47.2607" lon="4.95423">
        <ele>459.4</ele>
        <time>2013-01-25T09:54:04Z</time>
      </trkpt>
      <trkpt lat="47.26072" lon="4.9541">
        <ele>459.6</ele>
        <time>2013-01-25T09:54:15Z</time>
      </trkpt>
      <trkpt lat="47.26072" lon="4.95395">
        <ele>459.3</ele>
        <time>2013-01-25T09:54:26Z</time>
      </trkpt>
      <trkpt lat="47.26072" lon="4.9538">
        <ele>462.152</ele>
        <time>2013-01-25T09:54:37Z</time>
      </trkpt>
      <trkpt lat="47.26072" lon="4.9537">
        <ele>459.2</ele>
        <time>2013-01-25T09:54:48Z</time>
      </trkpt>
      <trkpt lat="47.26072" lon="4.95353">
        <ele>459.2</ele>
        <time>2013-01-25T09:54:59Z</time>
      </trkpt>
      <trkpt lat="47.2607" lon="4.95342">
        <ele>459</ele>
        <time>2013-01-25T09:55:10Z</time>
      </trkpt>
      <trkpt lat="47.26068" lon="4.95323">
        <ele>459.1</ele>
        <time>2013-01-25T09:55:21Z</time>
      </trkpt>
      <trkpt lat="47.26067" lon="4.95298">
        <ele>459.4</ele>
        <time>2013-01-25T09:55:32Z</time>
      </trkpt>
      <trkpt lat="47.26067" lon="4.95283">
        <ele>459.7</ele>
        <time>2013-01-25T09:55:43Z</time>
      </trkpt>
      <trkpt lat="47.26065" lon="4.95262">
        <ele>459.7</ele>
        <time>2013-01-25T09:55:54Z</time>
      </trkpt>
      <trkpt lat="47.26065" lon="4.95237">
        <ele>459.8</ele>
        <time>2013-01-25T09:56:05Z</time>
      </trkpt>
      <trkpt lat="47.26067" lon="4.95217">
        <ele>460.1</ele>
        <time>2013-01-25T09:56:16Z</time>
      </trkpt>
      <trkpt lat="47.26068" lon="4.95198">
        <ele>460</ele>
        <time>2013-01-25T09:56:27Z</time>
      </trkpt>
      <trkpt lat="47.26067" lon="4.95178">
        <ele>459.8</ele>
        <time>2013-01-25T09:56:38Z</time>
      </trkpt>
      <trkpt lat="47.26067" lon="4.95163">
        <ele>459.9</ele>
        <time>2013-01-25T09:56:49Z</time>
      </trkpt>
      <trkpt lat="47.26063" lon="4.95148">
        <ele>460.2</ele>
        <time>2013-01-25T09:57:00Z</time>
      </trkpt>
      <trkpt lat="47.26063" lon="4.95138">
        <ele>460.6</ele>
        <time>2013-01-25T09:57:11Z</time>
      </trkpt>
      <trkpt lat="47.26063" lon="4.95118">
        <ele>461.3</ele>
        <time>2013-01-25T09:57:22Z</time>
      </trkpt>
      <trkpt lat="47.26062" lon="4.95093">
        <ele>461.9</ele>
        <time>2013-01-25T09:57:33Z</time>
      </trkpt>
      <trkpt lat="47.2606" lon="4.95073">
        <ele>462.2</ele>
        <time>2013-01-25T09:57:44Z</time>
      </trkpt>
      <trkpt lat="47.2606" lon="4.95057">
        <ele>462.3</ele>
        <time>2013-01-25T09:57:55Z</time>
      </trkpt>
      <trkpt lat="47.26057" lon="4.95035">
        <ele>462.8</ele>
        <time>2013-01-25T09:58:06Z</time>
      </trkpt>
      <trkpt lat="47.26055" lon="4.95013">
        <ele>463</ele>
        <time>2013-01-25T09:58:17Z</time>
      </trkpt>
      <trkpt lat="47.26057" lon="4.94995">
        <ele>463.3</ele>
        <time>2013-01-25T09:58:28Z</time>
      </trkpt>
      <trkpt lat="47.26055" lon="4.94975">
        <ele>463.9</ele>
        <time>2013-01-25T09:58:39Z</time>
      </trkpt>
      <trkpt lat="47.26057" lon="4.9496">
        <ele>464</ele>
        <time>2013-01-25T09:58:50Z</time>
      </trkpt>
      <trkpt lat="47.2606" lon="4.94942">
        <ele>464.2</ele>
        <time>2013-01-25T09:59:01Z</time>
      </trkpt>
      <trkpt lat="47.26063" lon="4.94927">
        <ele>464.3</ele>
        <time>2013-01-25T09:59:12Z</time>
      </trkpt>
      <trkpt lat="47.26067" lon="4.94908">
        <ele>464.2</ele>
        <time>2013-01-25T09:59:23Z</time>
      </trkpt>
      <trkpt lat="47.26072" lon="4.9489">
        <ele>464.2</ele>
        <time>2013-01-25T09:59:34Z</time>
      </trkpt>
      <trkpt lat="47.26078" lon="4.94867">
        <ele>464</ele>
        <time>2013-01-25T09:59:45Z</time>
      </trkpt>
      <trkpt lat="47.2608" lon="4.94847">
        <ele>463.4</ele>
        <time>2013-01-25T09:59:56Z</time>
      </trkpt>
      <trkpt lat="47.26087" lon="4.94828">
        <ele>463.4</ele>
        <time>2013-01-25T10:00:07Z</time>
      </trkpt>
      <trkpt lat="47.26088" lon="4.94813">
        <ele>463.5</ele>
        <time>2013-01-25T10:00:18Z</time>
      </trkpt>
      <trkpt lat="47.26093" lon="4.94792">
        <ele>463.009</ele>
        <time>2013-01-25T10:00:29Z</time>
      </trkpt>
      <trkpt lat="47.26097" lon="4.94773">
        <ele>463.9</ele>
        <time>2013-01-25T10:00:40Z</time>
      </trkpt>
      <trkpt lat="47.261" lon="4.94758">
        <ele>463.9</ele>
        <time>2013-01-25T10:00:51Z</time>
      </trkpt>
      <trkpt lat="47.26105" lon="4.94737">
        <ele>464.2</ele>
        <time>2013-01-25T10:01:02Z</time>
      </trkpt>
      <trkpt lat="47.26107" lon="4.94718">
        <ele>464.4</ele>
        <time>2013-01-25T10:01:13Z</time>
      </trkpt>
      <trkpt lat="47.2611" lon="4.94702">
        <ele>464.8</ele>
        <time>2013-01-25T10:01:24Z</time>
      </trkpt>
      <trkpt lat="47.26112" lon="4.94685">
        <ele>465</ele>
        <time>2013-01-25T10:01:35Z</time>
      </trkpt>
      <trkpt lat="47.26113" lon="4.94668">
        <ele>465.1</ele>
        <time>2013-01-25T10:01:46Z</time>
      </trkpt>
      <trkpt lat="47.26113" lon="4.94663">
        <ele>465</ele>
        <time>2013-01-25T10:01:57Z</time>
      </trkpt>
      <trkpt lat="47.26113" lon="4.9466">
        <ele>464.9</ele>
        <time>2013-01-25T10:02:08Z</time>
      </trkpt>
      <trkpt lat="47.26115" lon="4.94657">
        <ele>464.9</ele>
        <time>2013-01-25T10:02:19Z</time>
      </trkpt>
      <trkpt lat="47.2612" lon="4.94645">
        <ele>465</ele>
        <time>2013-01-25T10:02:30Z</time>
      </trkpt>
      <trkpt lat="47.26123" lon="4.94633">
        <ele>465.6</ele>
        <time>2013-01-25T10:02:41Z</time>
      </trkpt>
      <trkpt lat="47.26128" lon="4.94617">
        <ele>467</ele>
        <time>2013-01-25T10:02:52Z</time>
      </trkpt>
      <trkpt lat="47.26132" lon="4.94595">
        <ele>468.1</ele>
        <time>2013-01-25T10:03:03Z</time>
      </trkpt>
      <trkpt lat="47.26133" lon="4.9457">
        <ele>469</ele>
        <time>2013-01-25T10:03:14Z</time>
      </trkpt>
      <trkpt lat="47.26133" lon="4.94558">
        <ele>469.3</ele>
        <time>2013-01-25T10:03:25Z</time>
      </trkpt>
      <trkpt lat="47.26135" lon="4.9454">
        <ele>470.2</ele>
        <time>2013-01-25T10:03:36Z</time>
      </trkpt>
      <trkpt lat="47.26135" lon="4.9452">
        <ele>471</ele>
        <time>2013-01-25T10:03:47Z</time>
      </trkpt>
      <trkpt lat="47.26137" lon="4.94503">
        <ele>471.7</ele>
        <time>2013-01-25T10:03:58Z</time>
      </trkpt>
      <trkpt lat="47.26143" lon="4.94492">
        <ele>472.6</ele>
        <time>2013-01-25T10:04:09Z</time>
      </trkpt>
      <trkpt lat="47.26153" lon="4.94475">
        <ele>473.9</ele>
        <time>2013-01-25T10:04:20Z</time>
      </trkpt>
      <trkpt lat="47.26163" lon="4.94458">
        <ele>475.3</ele>
        <time>2013-01-25T10:04:31Z</time>
      </trkpt>
      <trkpt lat="47.26168" lon="4.94452">
        <ele>475.8</ele>
        <time>2013-01-25T10:04:42Z</time>
      </trkpt>
      <trkpt lat="47.26177" lon="4.94442">
        <ele>476.4</ele>
        <time>2013-01-25T10:04:53Z</time>
      </trkpt>
      <trkpt lat="47.26183" lon="4.94433">
        <ele>476.8</ele>
        <time>2013-01-25T10:05:04Z</time>
      </trkpt>
      <trkpt lat="47.26188" lon="4.94427">
        <ele>477.3</ele>
        <time>2013-01-25T10:05:15Z</time>
      </trkpt>
      <trkpt lat="47.26188" lon="4.94427">
        <ele>477.3</ele>
        <time>2013-01-25T10:05:26Z</time>
      </trkpt>
      <trkpt lat="47.2619" lon="4.94423">
        <ele>477.5</ele>
        <time>2013-01-25T10:05:37Z</time>
      </trkpt>
      <trkpt lat="47.26192" lon="4.94423">
        <ele>477.6</ele>
        <time>2013-01-25T10:05:48Z</time>
      </trkpt>
      <trkpt lat="47.26202" lon="4.9441">
        <ele>478.3</ele>
        <time>2013-01-25T10:05:59Z</time>
      </trkpt>
      <trkpt lat="47.2621" lon="4.94385">
        <ele>479.1</ele>
        <time>2013-01-25T10:06:10Z</time>
      </trkpt>
      <trkpt lat="47.26218" lon="4.94367">
        <ele>479.7</ele>
        <time>2013-01-25T10:06:21Z</time>
      </trkpt>
      <trkpt lat="47.26223" lon="4.94343">
        <ele>480.1</ele>
        <time>2013-01-25T10:06:32Z</time>
      </trkpt>
      <trkpt lat="47.26223" lon="4.94322">
        <ele>479.7</ele>
        <time>2013-01-25T10:06:43Z</time>
      </trkpt>
      <trkpt lat="47.26227" lon="4.94305">
        <ele>479.5</ele>
        <time>2013-01-25T10:06:54Z</time>
      </trkpt>
      <trkpt lat="47.26228" lon="4.94292">
        <ele>479.2</ele>
        <time>2013-01-25T10:07:05Z</time>
      </trkpt>
      <trkpt lat="47.26232" lon="4.94283">
        <ele>479.2</ele>
        <time>2013-01-25T10:07:16Z</time>
      </trkpt>
      <trkpt lat="47.2624" lon="4.94265">
        <ele>477.77</ele>
        <time>2013-01-25T10:07:27Z</time>
      </trkpt>
      <trkpt lat="47.26243" lon="4.94257">
        <ele>478.801</ele>
        <time>2013-01-25T10:07:38Z</time>
      </trkpt>
      <trkpt lat="47.26248" lon="4.94238">
        <ele>479.969</ele>
        <time>2013-01-25T10:07:49Z</time>
      </trkpt>
      <trkpt lat="47.26253" lon="4.9423">
        <ele>479.159</ele>
        <time>2013-01-25T10:08:00Z</time>
      </trkpt>
      <trkpt lat="47.26257" lon="4.94215">
        <ele>482.127</ele>
        <time>2013-01-25T10:08:11Z</time>
      </trkpt>
      <trkpt lat="47.26255" lon="4.94197">
        <ele>481.7</ele>
        <time>2013-01-25T10:08:22Z</time>
      </trkpt>
      <trkpt lat="47.26257" lon="4.9419">
        <ele>484.423</ele>
        <time>2013-01-25T10:08:33Z</time>
      </trkpt>
      <trkpt lat="47.26258" lon="4.94167">
        <ele>482.9</ele>
        <time>2013-01-25T10:08:44Z</time>
      </trkpt>
      <trkpt lat="47.26258" lon="4.94153">
        <ele>486.384</ele>
        <time>2013-01-25T10:08:55Z</time>
      </trkpt>
      <trkpt lat="47.26257" lon="4.94123">
        <ele>487.735</ele>
        <time>2013-01-25T10:09:06Z</time>
      </trkpt>
      <trkpt lat="47.26255" lon="4.94098">
        <ele>483.7</ele>
        <time>2013-01-25T10:09:17Z</time>
      </trkpt>
      <trkpt lat="47.26258" lon="4.94087">
        <ele>488.731</ele>
        <time>2013-01-25T10:09:28Z</time>
      </trkpt>
      <trkpt lat="47.2626" lon="4.9407">
        <ele>491.199</ele>
        <time>2013-01-25T10:09:39Z</time>
      </trkpt>
      <trkpt lat="47.26267" lon="4.94043">
        <ele>492.029</ele>
        <time>2013-01-25T10:09:50Z</time>
      </trkpt>
      <trkpt lat="47.26272" lon="4.94032">
        <ele>489.887</ele>
        <time>2013-01-25T10:10:01Z</time>
      </trkpt>
      <trkpt lat="47.26278" lon="4.94017">
        <ele>490.121</ele>
        <time>2013-01-25T10:10:12Z</time>
      </trkpt>
      <trkpt lat="47.26285" lon="4.93998">
        <ele>488.973</ele>
        <time>2013-01-25T10:10:23Z</time>
      </trkpt>
      <trkpt lat="47.26297" lon="4.9398">
        <ele>491.463</ele>
        <time>2013-01-25T10:10:34Z</time>
      </trkpt>
      <trkpt lat="47.26303" lon="4.93965">
        <ele>493.462</ele>
        <time>2013-01-25T10:10:45Z</time>
      </trkpt>
      <trkpt lat="47.26312" lon="4.9395">
        <ele>494.871</ele>
        <time>2013-01-25T10:10:56Z</time>
      </trkpt>
      <trkpt lat="47.26312" lon="4.9394">
        <ele>495.303</ele>
        <time>2013-01-25T10:11:07Z</time>
      </trkpt>
      <trkpt lat="47.26313" lon="4.93922">
        <ele>495.993</ele>
        <time>2013-01-25T10:11:18Z</time>
      </trkpt>
      <trkpt lat="47.26315" lon="4.93912">
        <ele>496.769</ele>
        <time>2013-01-25T10:11:29Z</time>
      </trkpt>
      <trkpt lat="47.26315" lon="4.93892">
        <ele>498.558</ele>
        <time>2013-01-25T10:11:40Z</time>
      </trkpt>
      <trkpt lat="47.26315" lon="4.93878">
        <ele>499.554</ele>
        <time>2013-01-25T10:11:51Z</time>
      </trkpt>
      <trkpt lat="47.26317" lon="4.93863">
        <ele>499.83</ele>
        <time>2013-01-25T10:12:02Z</time>
      </trkpt>
      <trkpt lat="47.26318" lon="4.93847">
        <ele>500.857</ele>
        <time>2013-01-25T10:12:13Z</time>
      </trkpt>
      <trkpt lat="47.26318" lon="4.93827">
        <ele>501.847</ele>
        <time>2013-01-25T10:12:24Z</time>
      </trkpt>
      <trkpt lat="47.26318" lon="4.93807">
        <ele>502.913</ele>
        <time>2013-01-25T10:12:35Z</time>
      </trkpt>
      <trkpt lat="47.2632" lon="4.9379">
        <ele>504.461</ele>
        <time>2013-01-25T10:12:46Z</time>
      </trkpt>
      <trkpt lat="47.2632" lon="4.93772">
        <ele>506.601</ele>
        <time>2013-01-25T10:12:57Z</time>
      </trkpt>
      <trkpt lat="47.2632" lon="4.93757">
        <ele>507.888</ele>
        <time>2013-01-25T10:13:08Z</time>
      </trkpt>
      <trkpt lat="47.26322" lon="4.93743">
        <ele>509.117</ele>
        <time>2013-01-25T10:13:19Z</time>
      </trkpt>
      <trkpt lat="47.26318" lon="4.9373">
        <ele>510.538</ele>
        <time>2013-01-25T10:13:30Z</time>
      </trkpt>
      <trkpt lat="47.2632" lon="4.93715">
        <ele>510.162</ele>
        <time>2013-01-25T10:13:41Z</time>
      </trkpt>
      <trkpt lat="47.2632" lon="4.93703">
        <ele>508.237</ele>
        <time>2013-01-25T10:13:52Z</time>
      </trkpt>
      <trkpt lat="47.2632" lon="4.93692">
        <ele>510.211</ele>
        <time>2013-01-25T10:14:03Z</time>
      </trkpt>
      <trkpt lat="47.26318" lon="4.93673">
        <ele>511.1</ele>
        <time>2013-01-25T10:14:14Z</time>
      </trkpt>
      <trkpt lat="47.26317" lon="4.93652">
        <ele>511.604</ele>
        <time>2013-01-25T10:14:25Z</time>
      </trkpt>
      <trkpt lat="47.26318" lon="4.93643">
        <ele>512.053</ele>
        <time>2013-01-25T10:14:36Z</time>
      </trkpt>
      <trkpt lat="47.2632" lon="4.93615">
        <ele>513.9</ele>
        <time>2013-01-25T10:14:47Z</time>
      </trkpt>
      <trkpt lat="47.2632" lon="4.93593">
        <ele>511.095</ele>
        <time>2013-01-25T10:14:58Z</time>
      </trkpt>
      <trkpt lat="47.26318" lon="4.93568">
        <ele>512.255</ele>
        <time>2013-01-25T10:15:09Z</time>
      </trkpt>
      <trkpt lat="47.26318" lon="4.93545">
        <ele>516.7</ele>
        <time>2013-01-25T10:15:20Z</time>
      </trkpt>
      <trkpt lat="47.26318" lon="4.93523">
        <ele>517.394</ele>
        <time>2013-01-25T10:15:31Z</time>
      </trkpt>
      <trkpt lat="47.26322" lon="4.935">
        <ele>519</ele>
        <time>2013-01-25T10:15:42Z</time>
      </trkpt>
      <trkpt lat="47.2632" lon="4.9348">
        <ele>520.423</ele>
        <time>2013-01-25T10:15:53Z</time>
      </trkpt>
      <trkpt lat="47.26322" lon="4.93457">
        <ele>519.6</ele>
        <time>2013-01-25T10:16:04Z</time>
      </trkpt>
      <trkpt lat="47.26322" lon="4.93428">
        <ele>524.573</ele>
        <time>2013-01-25T10:16:15Z</time>
      </trkpt>
      <trkpt lat="47.2632" lon="4.93413">
        <ele>523.424</ele>
        <time>2013-01-25T10:16:26Z</time>
      </trkpt>
      <trkpt lat="47.26322" lon="4.93392">
        <ele>523.067</ele>
        <time>2013-01-25T10:16:37Z</time>
      </trkpt>
      <trkpt lat="47.26322" lon="4.9337">
        <ele>526.318</ele>
        <time>2013-01-25T10:16:48Z</time>
      </trkpt>
      <trkpt lat="47.26322" lon="4.93348">
        <ele>525.867</ele>
        <time>2013-01-25T10:16:59Z</time>
      </trkpt>
      <trkpt lat="47.26322" lon="4.93328">
        <ele>526.243</ele>
        <time>2013-01-25T10:17:10Z</time>
      </trkpt>
      <trkpt lat="47.2632" lon="4.93302">
        <ele>526.874</ele>
        <time>2013-01-25T10:17:21Z</time>
      </trkpt>
      <trkpt lat="47.26323" lon="4.93288">
        <ele>527.018</ele>
        <time>2013-01-25T10:17:32Z</time>
      </trkpt>
      <trkpt lat="47.26323" lon="4.93263">
        <ele>527.075</ele>
        <time>2013-01-25T10:17:43Z</time>
      </trkpt>
      <trkpt lat="47.26323" lon="4.9325">
        <ele>527.428</ele>
        <time>2013-01-25T10:17:54Z</time>
      </trkpt>
      <trkpt lat="47.26325" lon="4.93232">
        <ele>527.607</ele>
        <time>2013-01-25T10:18:05Z</time>
      </trkpt>
      <trkpt lat="47.26332" lon="4.9321">
        <ele>528.25</ele>
        <time>2013-01-25T10:18:16Z</time>
      </trkpt>
      <trkpt lat="47.26333" lon="4.93205">
        <ele>528.579</ele>
        <time>2013-01-25T10:18:27Z</time>
      </trkpt>
      <trkpt lat="47.26333" lon="4.93205">
        <ele>528.579</ele>
        <time>2013-01-25T10:18:38Z</time>
      </trkpt>
      <trkpt lat="47.26333" lon="4.93205">
        <ele>525</ele>
        <time>2013-01-25T10:18:49Z</time>
      </trkpt>
      <trkpt lat="47.26333" lon="4.93205">
        <ele>528.579</ele>
        <time>2013-01-25T10:19:00Z</time>
      </trkpt>
      <trkpt lat="47.26333" lon="4.93205">
        <ele>528.687</ele>
        <time>2013-01-25T10:19:11Z</time>
      </trkpt>
      <trkpt lat="47.26333" lon="4.93205">
        <ele>525</ele>
        <time>2013-01-25T10:19:22Z</time>
      </trkpt>
      <trkpt lat="47.26333" lon="4.93205">
        <ele>525</ele>
        <time>2013-01-25T10:19:33Z</time>
      </trkpt>
      <trkpt lat="47.26333" lon="4.93207">
        <ele>525</ele>
        <time>2013-01-25T10:19:44Z</time>
      </trkpt>
      <trkpt lat="47.26333" lon="4.93207">
        <ele>525</ele>
        <time>2013-01-25T10:19:55Z</time>
      </trkpt>
      <trkpt lat="47.26333" lon="4.93207">
        <ele>525</ele>
        <time>2013-01-25T10:20:06Z</time>
      </trkpt>
      <trkpt lat="47.26333" lon="4.93207">
        <ele>525</ele>
        <time>2013-01-25T10:20:17Z</time>
      </trkpt>
      <trkpt lat="47.26333" lon="4.93207">
        <ele>525</ele>
        <time>2013-01-25T10:20:28Z</time>
      </trkpt>
      <trkpt lat="47.26333" lon="4.93205">
        <ele>525</ele>
        <time>2013-01-25T10:20:39Z</time>
      </trkpt>
      <trkpt lat="47.26333" lon="4.93205">
        <ele>525</ele>
        <time>2013-01-25T10:20:50Z</time>
      </trkpt>
      <trkpt lat="47.26333" lon="4.93205">
        <ele>525</ele>
        <time>2013-01-25T10:21:01Z</time>
      </trkpt>
      <trkpt lat="47.26333" lon="4.93205">
        <ele>525</ele>
        <time>2013-01-25T10:21:12Z</time>
      </trkpt>
      <trkpt lat="47.26333" lon="4.93205">
        <ele>525</ele>
        <time>2013-01-25T10:21:23Z</time>
      </trkpt>
      <trkpt lat="47.26333" lon="4.93205">
        <ele>525</ele>
        <time>2013-01-25T10:21:34Z</time>
      </trkpt>
      <trkpt lat="47.26333" lon="4.93205">
        <ele>525</ele>
        <time>2013-01-25T10:21:45Z</time>
      </trkpt>
      <trkpt lat="47.26333" lon="4.93205">
        <ele>525</ele>
        <time>2013-01-25T10:21:56Z</time>
      </trkpt>
      <trkpt lat="47.26333" lon="4.93203">
        <ele>525</ele>
        <time>2013-01-25T10:22:07Z</time>
      </trkpt>
      <trkpt lat="47.26338" lon="4.93202">
        <ele>525</ele>
        <time>2013-01-25T10:22:18Z</time>
      </trkpt>
      <trkpt lat="47.2635" lon="4.93203">
        <ele>525</ele>
        <time>2013-01-25T10:22:29Z</time>
      </trkpt>
      <trkpt lat="47.26358" lon="4.93212">
        <ele>525</ele>
        <time>2013-01-25T10:22:40Z</time>
      </trkpt>
      <trkpt lat="47.2637" lon="4.93222">
        <ele>525</ele>
        <time>2013-01-25T10:22:51Z</time>
      </trkpt>
      <trkpt lat="47.26382" lon="4.93228">
        <ele>524.8</ele>
        <time>2013-01-25T10:23:02Z</time>
      </trkpt>
      <trkpt lat="47.26392" lon="4.93235">
        <ele>524.5</ele>
        <time>2013-01-25T10:23:13Z</time>
      </trkpt>
      <trkpt lat="47.264" lon="4.93235">
        <ele>524.3</ele>
        <time>2013-01-25T10:23:24Z</time>
      </trkpt>
      <trkpt lat="47.26407" lon="4.93218">
        <ele>524.4</ele>
        <time>2013-01-25T10:23:35Z</time>
      </trkpt>
      <trkpt lat="47.26415" lon="4.93197">
        <ele>524.9</ele>
        <time>2013-01-25T10:23:46Z</time>
      </trkpt>
      <trkpt lat="47.2642" lon="4.93175">
        <ele>524.9</ele>
        <time>2013-01-25T10:23:57Z</time>
      </trkpt>
      <trkpt lat="47.26427" lon="4.93153">
        <ele>524.6</ele>
        <time>2013-01-25T10:24:08Z</time>
      </trkpt>
      <trkpt lat="47.26432" lon="4.93132">
        <ele>524.3</ele>
        <time>2013-01-25T10:24:19Z</time>
      </trkpt>
      <trkpt lat="47.26435" lon="4.9311">
        <ele>524</ele>
        <time>2013-01-25T10:24:30Z</time>
      </trkpt>
      <trkpt lat="47.26438" lon="4.93088">
        <ele>524</ele>
        <time>2013-01-25T10:24:41Z</time>
      </trkpt>
      <trkpt lat="47.2644" lon="4.93068">
        <ele>523.5</ele>
        <time>2013-01-25T10:24:52Z</time>
      </trkpt>
      <trkpt lat="47.26442" lon="4.93045">
        <ele>522.7</ele>
        <time>2013-01-25T10:25:03Z</time>
      </trkpt>
      <trkpt lat="47.26442" lon="4.93023">
        <ele>521.9</ele>
        <time>2013-01-25T10:25:14Z</time>
      </trkpt>
      <trkpt lat="47.26443" lon="4.93003">
        <ele>521.2</ele>
        <time>2013-01-25T10:25:25Z</time>
      </trkpt>
      <trkpt lat="47.26445" lon="4.9298">
        <ele>520.3</ele>
        <time>2013-01-25T10:25:36Z</time>
      </trkpt>
      <trkpt lat="47.26448" lon="4.92962">
        <ele>519.6</ele>
        <time>2013-01-25T10:25:47Z</time>
      </trkpt>
      <trkpt lat="47.2645" lon="4.92938">
        <ele>519</ele>
        <time>2013-01-25T10:25:58Z</time>
      </trkpt>
      <trkpt lat="47.26452" lon="4.92915">
        <ele>531.457</ele>
        <time>2013-01-25T10:26:09Z</time>
      </trkpt>
      <trkpt lat="47.26452" lon="4.92897">
        <ele>518.5</ele>
        <time>2013-01-25T10:26:20Z</time>
      </trkpt>
      <trkpt lat="47.26453" lon="4.92875">
        <ele>518.3</ele>
        <time>2013-01-25T10:26:31Z</time>
      </trkpt>
      <trkpt lat="47.26452" lon="4.9285">
        <ele>518.3</ele>
        <time>2013-01-25T10:26:42Z</time>
      </trkpt>
      <trkpt lat="47.26452" lon="4.92828">
        <ele>518.4</ele>
        <time>2013-01-25T10:26:53Z</time>
      </trkpt>
      <trkpt lat="47.26455" lon="4.92813">
        <ele>518.8</ele>
        <time>2013-01-25T10:27:04Z</time>
      </trkpt>
      <trkpt lat="47.2646" lon="4.92792">
        <ele>518.7</ele>
        <time>2013-01-25T10:27:15Z</time>
      </trkpt>
      <trkpt lat="47.26463" lon="4.9277">
        <ele>517.8</ele>
        <time>2013-01-25T10:27:26Z</time>
      </trkpt>
      <trkpt lat="47.26465" lon="4.92747">
        <ele>516.3</ele>
        <time>2013-01-25T10:27:37Z</time>
      </trkpt>
      <trkpt lat="47.26467" lon="4.92725">
        <ele>514.8</ele>
        <time>2013-01-25T10:27:48Z</time>
      </trkpt>
      <trkpt lat="47.2647" lon="4.92698">
        <ele>513.4</ele>
        <time>2013-01-25T10:27:59Z</time>
      </trkpt>
      <trkpt lat="47.26473" lon="4.92675">
        <ele>512.3</ele>
        <time>2013-01-25T10:28:10Z</time>
      </trkpt>
      <trkpt lat="47.26475" lon="4.92658">
        <ele>511.4</ele>
        <time>2013-01-25T10:28:21Z</time>
      </trkpt>
      <trkpt lat="47.2648" lon="4.92635">
        <ele>510.1</ele>
        <time>2013-01-25T10:28:32Z</time>
      </trkpt>
      <trkpt lat="47.26487" lon="4.92607">
        <ele>509.5</ele>
        <time>2013-01-25T10:28:43Z</time>
      </trkpt>
      <trkpt lat="47.2649" lon="4.9258">
        <ele>509.5</ele>
        <time>2013-01-25T10:28:54Z</time>
      </trkpt>
      <trkpt lat="47.26493" lon="4.9256">
        <ele>535.634</ele>
        <time>2013-01-25T10:29:05Z</time>
      </trkpt>
      <trkpt lat="47.26492" lon="4.92552">
        <ele>508.7</ele>
        <time>2013-01-25T10:29:16Z</time>
      </trkpt>
      <trkpt lat="47.26488" lon="4.92535">
        <ele>508.3</ele>
        <time>2013-01-25T10:29:27Z</time>
      </trkpt>
      <trkpt lat="47.26492" lon="4.92518">
        <ele>508.4</ele>
        <time>2013-01-25T10:29:38Z</time>
      </trkpt>
      <trkpt lat="47.26493" lon="4.92518">
        <ele>508.5</ele>
        <time>2013-01-25T10:29:49Z</time>
      </trkpt>
      <trkpt lat="47.26497" lon="4.92518">
        <ele>508.8</ele>
        <time>2013-01-25T10:30:00Z</time>
      </trkpt>
      <trkpt lat="47.26502" lon="4.92522">
        <ele>509.2</ele>
        <time>2013-01-25T10:30:11Z</time>
      </trkpt>
      <trkpt lat="47.26507" lon="4.92523">
        <ele>509.7</ele>
        <time>2013-01-25T10:30:22Z</time>
      </trkpt>
      <trkpt lat="47.26515" lon="4.92527">
        <ele>510.6</ele>
        <time>2013-01-25T10:30:33Z</time>
      </trkpt>
      <trkpt lat="47.26518" lon="4.92527">
        <ele>511</ele>
        <time>2013-01-25T10:30:44Z</time>
      </trkpt>
      <trkpt lat="47.2653" lon="4.9253">
        <ele>512.3</ele>
        <time>2013-01-25T10:30:55Z</time>
      </trkpt>
      <trkpt lat="47.26538" lon="4.92533">
        <ele>513.5</ele>
        <time>2013-01-25T10:31:06Z</time>
      </trkpt>
      <trkpt lat="47.26542" lon="4.92533">
        <ele>514</ele>
        <time>2013-01-25T10:31:17Z</time>
      </trkpt>
      <trkpt lat="47.26542" lon="4.92533">
        <ele>514</ele>
        <time>2013-01-25T10:31:28Z</time>
      </trkpt>
      <trkpt lat="47.26542" lon="4.92533">
        <ele>514</ele>
        <time>2013-01-25T10:31:39Z</time>
      </trkpt>
      <trkpt lat="47.26553" lon="4.92535">
        <ele>515.7</ele>
        <time>2013-01-25T10:31:50Z</time>
      </trkpt>
      <trkpt lat="47.26558" lon="4.92533">
        <ele>516.4</ele>
        <time>2013-01-25T10:32:01Z</time>
      </trkpt>
      <trkpt lat="47.26565" lon="4.92535">
        <ele>517.4</ele>
        <time>2013-01-25T10:32:12Z</time>
      </trkpt>
      <trkpt lat="47.26568" lon="4.92535">
        <ele>518</ele>
        <time>2013-01-25T10:32:23Z</time>
      </trkpt>
      <trkpt lat="47.26572" lon="4.92533">
        <ele>518.4</ele>
        <time>2013-01-25T10:32:34Z</time>
      </trkpt>
      <trkpt lat="47.26575" lon="4.92533">
        <ele>518.9</ele>
        <time>2013-01-25T10:32:45Z</time>
      </trkpt>
      <trkpt lat="47.26577" lon="4.92533">
        <ele>519.2</ele>
        <time>2013-01-25T10:32:56Z</time>
      </trkpt>
      <trkpt lat="47.2658" lon="4.92532">
        <ele>519.6</ele>
        <time>2013-01-25T10:33:07Z</time>
      </trkpt>
      <trkpt lat="47.26585" lon="4.92525">
        <ele>520.5</ele>
        <time>2013-01-25T10:33:18Z</time>
      </trkpt>
      <trkpt lat="47.26595" lon="4.92513">
        <ele>522.8</ele>
        <time>2013-01-25T10:33:29Z</time>
      </trkpt>
      <trkpt lat="47.26598" lon="4.92507">
        <ele>523.6</ele>
        <time>2013-01-25T10:33:40Z</time>
      </trkpt>
      <trkpt lat="47.26602" lon="4.9249">
        <ele>524.7</ele>
        <time>2013-01-25T10:33:51Z</time>
      </trkpt>
      <trkpt lat="47.2661" lon="4.92473">
        <ele>526.8</ele>
        <time>2013-01-25T10:34:02Z</time>
      </trkpt>
      <trkpt lat="47.26612" lon="4.92465">
        <ele>527.4</ele>
        <time>2013-01-25T10:34:13Z</time>
      </trkpt>
      <trkpt lat="47.26617" lon="4.9245">
        <ele>528.8</ele>
        <time>2013-01-25T10:34:24Z</time>
      </trkpt>
      <trkpt lat="47.26618" lon="4.92433">
        <ele>529.8</ele>
        <time>2013-01-25T10:34:35Z</time>
      </trkpt>
      <trkpt lat="47.26615" lon="4.92417">
        <ele>529.8</ele>
        <time>2013-01-25T10:34:46Z</time>
      </trkpt>
      <trkpt lat="47.26617" lon="4.924">
        <ele>531.3</ele>
        <time>2013-01-25T10:34:57Z</time>
      </trkpt>
      <trkpt lat="47.26615" lon="4.9239">
        <ele>531.6</ele>
        <time>2013-01-25T10:35:08Z</time>
      </trkpt>
      <trkpt lat="47.26613" lon="4.9237">
        <ele>532.1</ele>
        <time>2013-01-25T10:35:19Z</time>
      </trkpt>
      <trkpt lat="47.26608" lon="4.92347">
        <ele>532</ele>
        <time>2013-01-25T10:35:30Z</time>
      </trkpt>
      <trkpt lat="47.26605" lon="4.92337">
        <ele>531.8</ele>
        <time>2013-01-25T10:35:41Z</time>
      </trkpt>
      <trkpt lat="47.26607" lon="4.92313">
        <ele>533.6</ele>
        <time>2013-01-25T10:35:52Z</time>
      </trkpt>
      <trkpt lat="47.26603" lon="4.92297">
        <ele>534.2</ele>
        <time>2013-01-25T10:36:03Z</time>
      </trkpt>
      <trkpt lat="47.26602" lon="4.9228">
        <ele>534.8</ele>
        <time>2013-01-25T10:36:14Z</time>
      </trkpt>
      <trkpt lat="47.26597" lon="4.92257">
        <ele>555.401</ele>
        <time>2013-01-25T10:36:25Z</time>
      </trkpt>
      <trkpt lat="47.26593" lon="4.92243">
        <ele>536.3</ele>
        <time>2013-01-25T10:36:36Z</time>
      </trkpt>
      <trkpt lat="47.26588" lon="4.92228">
        <ele>536.5</ele>
        <time>2013-01-25T10:36:47Z</time>
      </trkpt>
      <trkpt lat="47.26582" lon="4.92217">
        <ele>535.9</ele>
        <time>2013-01-25T10:36:58Z</time>
      </trkpt>
      <trkpt lat="47.26577" lon="4.92202">
        <ele>535.5</ele>
        <time>2013-01-25T10:37:09Z</time>
      </trkpt>
      <trkpt lat="47.26572" lon="4.92185">
        <ele>535.8</ele>
        <time>2013-01-25T10:37:20Z</time>
      </trkpt>
      <trkpt lat="47.26565" lon="4.9217">
        <ele>535.8</ele>
        <time>2013-01-25T10:37:31Z</time>
      </trkpt>
      <trkpt lat="47.26562" lon="4.92158">
        <ele>536.2</ele>
        <time>2013-01-25T10:37:42Z</time>
      </trkpt>
      <trkpt lat="47.26558" lon="4.92147">
        <ele>536.8</ele>
        <time>2013-01-25T10:37:53Z</time>
      </trkpt>
      <trkpt lat="47.2655" lon="4.92127">
        <ele>536.7</ele>
        <time>2013-01-25T10:38:04Z</time>
      </trkpt>
      <trkpt lat="47.26543" lon="4.9211">
        <ele>536.5</ele>
        <time>2013-01-25T10:38:15Z</time>
      </trkpt>
      <trkpt lat="47.26543" lon="4.9211">
        <ele>536.5</ele>
        <time>2013-01-25T10:38:26Z</time>
      </trkpt>
      <trkpt lat="47.26543" lon="4.92108">
        <ele>536.6</ele>
        <time>2013-01-25T10:38:37Z</time>
      </trkpt>
      <trkpt lat="47.26543" lon="4.9211">
        <ele>536.5</ele>
        <time>2013-01-25T10:38:48Z</time>
      </trkpt>
      <trkpt lat="47.26543" lon="4.9211">
        <ele>536.5</ele>
        <time>2013-01-25T10:38:59Z</time>
      </trkpt>
      <trkpt lat="47.2654" lon="4.92103">
        <ele>536.3</ele>
        <time>2013-01-25T10:39:10Z</time>
      </trkpt>
      <trkpt lat="47.26532" lon="4.92083">
        <ele>536</ele>
        <time>2013-01-25T10:39:21Z</time>
      </trkpt>
      <trkpt lat="47.26528" lon="4.92068">
        <ele>536.2</ele>
        <time>2013-01-25T10:39:32Z</time>
      </trkpt>
      <trkpt lat="47.26522" lon="4.92043">
        <ele>537</ele>
        <time>2013-01-25T10:39:43Z</time>
      </trkpt>
      <trkpt lat="47.26513" lon="4.9202">
        <ele>536.9</ele>
        <time>2013-01-25T10:39:54Z</time>
      </trkpt>
      <trkpt lat="47.26503" lon="4.92002">
        <ele>535.7</ele>
        <time>2013-01-25T10:40:05Z</time>
      </trkpt>
      <trkpt lat="47.26495" lon="4.91988">
        <ele>534.8</ele>
        <time>2013-01-25T10:40:16Z</time>
      </trkpt>
      <trkpt lat="47.26492" lon="4.91968">
        <ele>535.4</ele>
        <time>2013-01-25T10:40:27Z</time>
      </trkpt>
      <trkpt lat="47.26488" lon="4.91948">
        <ele>535.8</ele>
        <time>2013-01-25T10:40:38Z</time>
      </trkpt>
      <trkpt lat="47.26485" lon="4.91927">
        <ele>535.9</ele>
        <time>2013-01-25T10:40:49Z</time>
      </trkpt>
      <trkpt lat="47.26477" lon="4.91902">
        <ele>534.7</ele>
        <time>2013-01-25T10:41:00Z</time>
      </trkpt>
      <trkpt lat="47.26473" lon="4.91887">
        <ele>534.3</ele>
        <time>2013-01-25T10:41:11Z</time>
      </trkpt>
      <trkpt lat="47.2647" lon="4.91863">
        <ele>533.5</ele>
        <time>2013-01-25T10:41:22Z</time>
      </trkpt>
      <trkpt lat="47.26468" lon="4.91843">
        <ele>533.2</ele>
        <time>2013-01-25T10:41:33Z</time>
      </trkpt>
      <trkpt lat="47.26468" lon="4.91828">
        <ele>533.1</ele>
        <time>2013-01-25T10:41:44Z</time>
      </trkpt>
      <trkpt lat="47.26467" lon="4.91812">
        <ele>532.6</ele>
        <time>2013-01-25T10:41:55Z</time>
      </trkpt>
      <trkpt lat="47.26472" lon="4.91787">
        <ele>532.5</ele>
        <time>2013-01-25T10:42:06Z</time>
      </trkpt>
      <trkpt lat="47.26475" lon="4.91763">
        <ele>531.8</ele>
        <time>2013-01-25T10:42:17Z</time>
      </trkpt>
      <trkpt lat="47.26483" lon="4.91743">
        <ele>532.6</ele>
        <time>2013-01-25T10:42:28Z</time>
      </trkpt>
      <trkpt lat="47.26485" lon="4.9172">
        <ele>531</ele>
        <time>2013-01-25T10:42:39Z</time>
      </trkpt>
      <trkpt lat="47.26492" lon="4.91702">
        <ele>530.4</ele>
        <time>2013-01-25T10:42:50Z</time>
      </trkpt>
      <trkpt lat="47.26502" lon="4.91688">
        <ele>530.9</ele>
        <time>2013-01-25T10:43:01Z</time>
      </trkpt>
      <trkpt lat="47.2651" lon="4.91672">
        <ele>530.9</ele>
        <time>2013-01-25T10:43:12Z</time>
      </trkpt>
      <trkpt lat="47.2652" lon="4.91657">
        <ele>530.5</ele>
        <time>2013-01-25T10:43:23Z</time>
      </trkpt>
      <trkpt lat="47.26532" lon="4.91645">
        <ele>530.2</ele>
        <time>2013-01-25T10:43:34Z</time>
      </trkpt>
      <trkpt lat="47.26542" lon="4.91635">
        <ele>529.4</ele>
        <time>2013-01-25T10:43:45Z</time>
      </trkpt>
      <trkpt lat="47.26555" lon="4.91627">
        <ele>528.8</ele>
        <time>2013-01-25T10:43:56Z</time>
      </trkpt>
      <trkpt lat="47.26573" lon="4.91622">
        <ele>528.5</ele>
        <time>2013-01-25T10:44:07Z</time>
      </trkpt>
      <trkpt lat="47.26587" lon="4.91618">
        <ele>528.5</ele>
        <time>2013-01-25T10:44:18Z</time>
      </trkpt>
      <trkpt lat="47.266" lon="4.91613">
        <ele>528.6</ele>
        <time>2013-01-25T10:44:29Z</time>
      </trkpt>
      <trkpt lat="47.26613" lon="4.91605">
        <ele>528</ele>
        <time>2013-01-25T10:44:40Z</time>
      </trkpt>
      <trkpt lat="47.26627" lon="4.91602">
        <ele>528.1</ele>
        <time>2013-01-25T10:44:51Z</time>
      </trkpt>
      <trkpt lat="47.26642" lon="4.91597">
        <ele>528.1</ele>
        <time>2013-01-25T10:45:02Z</time>
      </trkpt>
      <trkpt lat="47.26655" lon="4.91588">
        <ele>527.4</ele>
        <time>2013-01-25T10:45:13Z</time>
      </trkpt>
      <trkpt lat="47.26668" lon="4.91583">
        <ele>527.1</ele>
        <time>2013-01-25T10:45:24Z</time>
      </trkpt>
      <trkpt lat="47.26683" lon="4.9158">
        <ele>527.1</ele>
        <time>2013-01-25T10:45:35Z</time>
      </trkpt>
      <trkpt lat="47.26697" lon="4.91578">
        <ele>527.3</ele>
        <time>2013-01-25T10:45:46Z</time>
      </trkpt>
      <trkpt lat="47.26705" lon="4.91577">
        <ele>527.3</ele>
        <time>2013-01-25T10:45:57Z</time>
      </trkpt>
      <trkpt lat="47.26718" lon="4.91573">
        <ele>527.1</ele>
        <time>2013-01-25T10:46:08Z</time>
      </trkpt>
      <trkpt lat="47.2673" lon="4.91575">
        <ele>527.3</ele>
        <time>2013-01-25T10:46:19Z</time>
      </trkpt>
      <trkpt lat="47.26738" lon="4.91575">
        <ele>527.1</ele>
        <time>2013-01-25T10:46:30Z</time>
      </trkpt>
      <trkpt lat="47.26752" lon="4.91577">
        <ele>536.404</ele>
        <time>2013-01-25T10:46:41Z</time>
      </trkpt>
      <trkpt lat="47.26768" lon="4.91573">
        <ele>525.9</ele>
        <time>2013-01-25T10:46:52Z</time>
      </trkpt>
      <trkpt lat="47.2678" lon="4.9158">
        <ele>526.3</ele>
        <time>2013-01-25T10:47:03Z</time>
      </trkpt>
      <trkpt lat="47.26788" lon="4.9158">
        <ele>525.4</ele>
        <time>2013-01-25T10:47:14Z</time>
      </trkpt>
      <trkpt lat="47.26798" lon="4.91585">
        <ele>525</ele>
        <time>2013-01-25T10:47:25Z</time>
      </trkpt>
      <trkpt lat="47.26808" lon="4.91593">
        <ele>525</ele>
        <time>2013-01-25T10:47:36Z</time>
      </trkpt>
      <trkpt lat="47.26822" lon="4.916">
        <ele>524.1</ele>
        <time>2013-01-25T10:47:47Z</time>
      </trkpt>
      <trkpt lat="47.26838" lon="4.916">
        <ele>521.8</ele>
        <time>2013-01-25T10:47:58Z</time>
      </trkpt>
      <trkpt lat="47.26853" lon="4.91605">
        <ele>520.8</ele>
        <time>2013-01-25T10:48:09Z</time>
      </trkpt>
      <trkpt lat="47.2687" lon="4.91608">
        <ele>519.8</ele>
        <time>2013-01-25T10:48:20Z</time>
      </trkpt>
      <trkpt lat="47.26885" lon="4.9161">
        <ele>519</ele>
        <time>2013-01-25T10:48:31Z</time>
      </trkpt>
      <trkpt lat="47.26903" lon="4.91612">
        <ele>518.6</ele>
        <time>2013-01-25T10:48:42Z</time>
      </trkpt>
      <trkpt lat="47.26915" lon="4.91615">
        <ele>518.8</ele>
        <time>2013-01-25T10:48:53Z</time>
      </trkpt>
      <trkpt lat="47.2693" lon="4.91618">
        <ele>519.2</ele>
        <time>2013-01-25T10:49:04Z</time>
      </trkpt>
      <trkpt lat="47.26948" lon="4.91625">
        <ele>519.9</ele>
        <time>2013-01-25T10:49:15Z</time>
      </trkpt>
      <trkpt lat="47.26965" lon="4.91628">
        <ele>519.7</ele>
        <time>2013-01-25T10:49:26Z</time>
      </trkpt>
      <trkpt lat="47.26982" lon="4.9163">
        <ele>519.1</ele>
        <time>2013-01-25T10:49:37Z</time>
      </trkpt>
      <trkpt lat="47.26997" lon="4.91638">
        <ele>519.2</ele>
        <time>2013-01-25T10:49:48Z</time>
      </trkpt>
      <trkpt lat="47.27012" lon="4.91642">
        <ele>519</ele>
        <time>2013-01-25T10:49:59Z</time>
      </trkpt>
      <trkpt lat="47.27023" lon="4.91648">
        <ele>519.5</ele>
        <time>2013-01-25T10:50:10Z</time>
      </trkpt>
      <trkpt lat="47.27035" lon="4.91652">
        <ele>519.5</ele>
        <time>2013-01-25T10:50:21Z</time>
      </trkpt>
      <trkpt lat="47.27045" lon="4.9166">
        <ele>519.9</ele>
        <time>2013-01-25T10:50:32Z</time>
      </trkpt>
      <trkpt lat="47.27057" lon="4.91663">
        <ele>519.6</ele>
        <time>2013-01-25T10:50:43Z</time>
      </trkpt>
      <trkpt lat="47.27067" lon="4.91672">
        <ele>519.7</ele>
        <time>2013-01-25T10:50:54Z</time>
      </trkpt>
      <trkpt lat="47.2707" lon="4.91677">
        <ele>520</ele>
        <time>2013-01-25T10:51:05Z</time>
      </trkpt>
      <trkpt lat="47.27073" lon="4.91677">
        <ele>519.8</ele>
        <time>2013-01-25T10:51:16Z</time>
      </trkpt>
      <trkpt lat="47.27078" lon="4.91683">
        <ele>520.2</ele>
        <time>2013-01-25T10:51:27Z</time>
      </trkpt>
      <trkpt lat="47.27093" lon="4.91695">
        <ele>519.6</ele>
        <time>2013-01-25T10:51:38Z</time>
      </trkpt>
      <trkpt lat="47.27103" lon="4.91707">
        <ele>519.4</ele>
        <time>2013-01-25T10:51:49Z</time>
      </trkpt>
      <trkpt lat="47.27113" lon="4.91723">
        <ele>519.8</ele>
        <time>2013-01-25T10:52:00Z</time>
      </trkpt>
      <trkpt lat="47.27122" lon="4.9173">
        <ele>519.3</ele>
        <time>2013-01-25T10:52:11Z</time>
      </trkpt>
      <trkpt lat="47.27128" lon="4.91742">
        <ele>519.6</ele>
        <time>2013-01-25T10:52:22Z</time>
      </trkpt>
      <trkpt lat="47.27143" lon="4.91752">
        <ele>518.5</ele>
        <time>2013-01-25T10:52:33Z</time>
      </trkpt>
      <trkpt lat="47.2715" lon="4.91758">
        <ele>518.3</ele>
        <time>2013-01-25T10:52:44Z</time>
      </trkpt>
      <trkpt lat="47.27163" lon="4.91755">
        <ele>516</ele>
        <time>2013-01-25T10:52:55Z</time>
      </trkpt>
      <trkpt lat="47.27168" lon="4.91763">
        <ele>516.1</ele>
        <time>2013-01-25T10:53:06Z</time>
      </trkpt>
      <trkpt lat="47.27178" lon="4.9177">
        <ele>515.1</ele>
        <time>2013-01-25T10:53:17Z</time>
      </trkpt>
      <trkpt lat="47.27188" lon="4.91782">
        <ele>514.5</ele>
        <time>2013-01-25T10:53:28Z</time>
      </trkpt>
      <trkpt lat="47.272" lon="4.91792">
        <ele>511.518</ele>
        <time>2013-01-25T10:53:39Z</time>
      </trkpt>
      <trkpt lat="47.2721" lon="4.91802">
        <ele>512.8</ele>
        <time>2013-01-25T10:53:50Z</time>
      </trkpt>
      <trkpt lat="47.27215" lon="4.9181">
        <ele>512.8</ele>
        <time>2013-01-25T10:54:01Z</time>
      </trkpt>
      <trkpt lat="47.27217" lon="4.9181">
        <ele>512.5</ele>
        <time>2013-01-25T10:54:12Z</time>
      </trkpt>
      <trkpt lat="47.27217" lon="4.9181">
        <ele>512.5</ele>
        <time>2013-01-25T10:54:23Z</time>
      </trkpt>
      <trkpt lat="47.27217" lon="4.9181">
        <ele>512.5</ele>
        <time>2013-01-25T10:54:34Z</time>
      </trkpt>
      <trkpt lat="47.27217" lon="4.9181">
        <ele>512.5</ele>
        <time>2013-01-25T10:54:45Z</time>
      </trkpt>
      <trkpt lat="47.27217" lon="4.9181">
        <ele>512.5</ele>
        <time>2013-01-25T10:54:56Z</time>
      </trkpt>
      <trkpt lat="47.27217" lon="4.9181">
        <ele>512.5</ele>
        <time>2013-01-25T10:55:07Z</time>
      </trkpt>
      <trkpt lat="47.27217" lon="4.9181">
        <ele>512.5</ele>
        <time>2013-01-25T10:55:18Z</time>
      </trkpt>
      <trkpt lat="47.27217" lon="4.91808">
        <ele>512.3</ele>
        <time>2013-01-25T10:55:29Z</time>
      </trkpt>
      <trkpt lat="47.27217" lon="4.91808">
        <ele>512.3</ele>
        <time>2013-01-25T10:55:40Z</time>
      </trkpt>
      <trkpt lat="47.27218" lon="4.9181">
        <ele>512.2</ele>
        <time>2013-01-25T10:55:51Z</time>
      </trkpt>
      <trkpt lat="47.2722" lon="4.91815">
        <ele>512.4</ele>
        <time>2013-01-25T10:56:02Z</time>
      </trkpt>
      <trkpt lat="47.27222" lon="4.9182">
        <ele>512.7</ele>
        <time>2013-01-25T10:56:13Z</time>
      </trkpt>
      <trkpt lat="47.2723" lon="4.91828">
        <ele>512</ele>
        <time>2013-01-25T10:56:24Z</time>
      </trkpt>
      <trkpt lat="47.27243" lon="4.91838">
        <ele>510.6</ele>
        <time>2013-01-25T10:56:35Z</time>
      </trkpt>
      <trkpt lat="47.2725" lon="4.91845">
        <ele>509.8</ele>
        <time>2013-01-25T10:56:46Z</time>
      </trkpt>
      <trkpt lat="47.27262" lon="4.91857">
        <ele>508.5</ele>
        <time>2013-01-25T10:56:57Z</time>
      </trkpt>
      <trkpt lat="47.27275" lon="4.9187">
        <ele>507.5</ele>
        <time>2013-01-25T10:57:08Z</time>
      </trkpt>
      <trkpt lat="47.27287" lon="4.91882">
        <ele>506.3</ele>
        <time>2013-01-25T10:57:19Z</time>
      </trkpt>
      <trkpt lat="47.27303" lon="4.91898">
        <ele>504.5</ele>
        <time>2013-01-25T10:57:30Z</time>
      </trkpt>
      <trkpt lat="47.27315" lon="4.91913">
        <ele>503.9</ele>
        <time>2013-01-25T10:57:41Z</time>
      </trkpt>
      <trkpt lat="47.27328" lon="4.91927">
        <ele>503</ele>
        <time>2013-01-25T10:57:52Z</time>
      </trkpt>
      <trkpt lat="47.27342" lon="4.91942">
        <ele>501.9</ele>
        <time>2013-01-25T10:58:03Z</time>
      </trkpt>
      <trkpt lat="47.27357" lon="4.91952">
        <ele>500</ele>
        <time>2013-01-25T10:58:14Z</time>
      </trkpt>
      <trkpt lat="47.27372" lon="4.91967">
        <ele>498.6</ele>
        <time>2013-01-25T10:58:25Z</time>
      </trkpt>
      <trkpt lat="47.27387" lon="4.91985">
        <ele>496.9</ele>
        <time>2013-01-25T10:58:36Z</time>
      </trkpt>
      <trkpt lat="47.27402" lon="4.91997">
        <ele>495.7</ele>
        <time>2013-01-25T10:58:47Z</time>
      </trkpt>
      <trkpt lat="47.27418" lon="4.92">
        <ele>493.8</ele>
        <time>2013-01-25T10:58:58Z</time>
      </trkpt>
      <trkpt lat="47.27433" lon="4.91998">
        <ele>491.9</ele>
        <time>2013-01-25T10:59:09Z</time>
      </trkpt>
      <trkpt lat="47.2745" lon="4.91995">
        <ele>489.1</ele>
        <time>2013-01-25T10:59:20Z</time>
      </trkpt>
      <trkpt lat="47.27468" lon="4.91992">
        <ele>485.5</ele>
        <time>2013-01-25T10:59:31Z</time>
      </trkpt>
      <trkpt lat="47.27482" lon="4.91982">
        <ele>482.2</ele>
        <time>2013-01-25T10:59:42Z</time>
      </trkpt>
      <trkpt lat="47.27497" lon="4.91978">
        <ele>480</ele>
        <time>2013-01-25T10:59:53Z</time>
      </trkpt>
      <trkpt lat="47.27513" lon="4.9198">
        <ele>478.4</ele>
        <time>2013-01-25T11:00:04Z</time>
      </trkpt>
      <trkpt lat="47.27528" lon="4.91987">
        <ele>477.5</ele>
        <time>2013-01-25T11:00:15Z</time>
      </trkpt>
      <trkpt lat="47.27543" lon="4.91997">
        <ele>476.3</ele>
        <time>2013-01-25T11:00:26Z</time>
      </trkpt>
      <trkpt lat="47.2756" lon="4.9201">
        <ele>475.4</ele>
        <time>2013-01-25T11:00:37Z</time>
      </trkpt>
      <trkpt lat="47.27575" lon="4.92022">
        <ele>474.9</ele>
        <time>2013-01-25T11:00:48Z</time>
      </trkpt>
      <trkpt lat="47.27592" lon="4.92035">
        <ele>474.4</ele>
        <time>2013-01-25T11:00:59Z</time>
      </trkpt>
      <trkpt lat="47.27608" lon="4.92047">
        <ele>473.2</ele>
        <time>2013-01-25T11:01:10Z</time>
      </trkpt>
      <trkpt lat="47.27623" lon="4.92058">
        <ele>472.5</ele>
        <time>2013-01-25T11:01:21Z</time>
      </trkpt>
      <trkpt lat="47.27637" lon="4.92073">
        <ele>472.2</ele>
        <time>2013-01-25T11:01:32Z</time>
      </trkpt>
      <trkpt lat="47.27648" lon="4.92087">
        <ele>477.603</ele>
        <time>2013-01-25T11:01:43Z</time>
      </trkpt>
      <trkpt lat="47.2766" lon="4.92097">
        <ele>474.891</ele>
        <time>2013-01-25T11:01:54Z</time>
      </trkpt>
      <trkpt lat="47.27675" lon="4.92103">
        <ele>469.9</ele>
        <time>2013-01-25T11:02:05Z</time>
      </trkpt>
      <trkpt lat="47.2769" lon="4.92112">
        <ele>468.7</ele>
        <time>2013-01-25T11:02:16Z</time>
      </trkpt>
      <trkpt lat="47.277" lon="4.92128">
        <ele>469.1</ele>
        <time>2013-01-25T11:02:27Z</time>
      </trkpt>
      <trkpt lat="47.27708" lon="4.92138">
        <ele>468.4</ele>
        <time>2013-01-25T11:02:38Z</time>
      </trkpt>
      <trkpt lat="47.2772" lon="4.92152">
        <ele>467.8</ele>
        <time>2013-01-25T11:02:49Z</time>
      </trkpt>
      <trkpt lat="47.2773" lon="4.92165">
        <ele>471.579</ele>
        <time>2013-01-25T11:03:00Z</time>
      </trkpt>
      <trkpt lat="47.27743" lon="4.92178">
        <ele>467.1</ele>
        <time>2013-01-25T11:03:11Z</time>
      </trkpt>
      <trkpt lat="47.2776" lon="4.92183">
        <ele>466.8</ele>
        <time>2013-01-25T11:03:22Z</time>
      </trkpt>
      <trkpt lat="47.27775" lon="4.92172">
        <ele>466.9</ele>
        <time>2013-01-25T11:03:33Z</time>
      </trkpt>
      <trkpt lat="47.27778" lon="4.92152">
        <ele>467.6</ele>
        <time>2013-01-25T11:03:44Z</time>
      </trkpt>
      <trkpt lat="47.27778" lon="4.92132">
        <ele>468.6</ele>
        <time>2013-01-25T11:03:55Z</time>
      </trkpt>
      <trkpt lat="47.27775" lon="4.92113">
        <ele>469.1</ele>
        <time>2013-01-25T11:04:06Z</time>
      </trkpt>
      <trkpt lat="47.27773" lon="4.92098">
        <ele>469.6</ele>
        <time>2013-01-25T11:04:17Z</time>
      </trkpt>
      <trkpt lat="47.27768" lon="4.92075">
        <ele>470</ele>
        <time>2013-01-25T11:04:28Z</time>
      </trkpt>
      <trkpt lat="47.27763" lon="4.92057">
        <ele>470.3</ele>
        <time>2013-01-25T11:04:39Z</time>
      </trkpt>
      <trkpt lat="47.2776" lon="4.92035">
        <ele>471.7</ele>
        <time>2013-01-25T11:04:50Z</time>
      </trkpt>
      <trkpt lat="47.2776" lon="4.92013">
        <ele>474.1</ele>
        <time>2013-01-25T11:05:01Z</time>
      </trkpt>
      <trkpt lat="47.27762" lon="4.91997">
        <ele>476.1</ele>
        <time>2013-01-25T11:05:12Z</time>
      </trkpt>
      <trkpt lat="47.27767" lon="4.9198">
        <ele>477.8</ele>
        <time>2013-01-25T11:05:23Z</time>
      </trkpt>
      <trkpt lat="47.27772" lon="4.9197">
        <ele>479</ele>
        <time>2013-01-25T11:05:34Z</time>
      </trkpt>
      <trkpt lat="47.27772" lon="4.91968">
        <ele>479.1</ele>
        <time>2013-01-25T11:05:45Z</time>
      </trkpt>
      <trkpt lat="47.27772" lon="4.91968">
        <ele>479.1</ele>
        <time>2013-01-25T11:05:56Z</time>
      </trkpt>
      <trkpt lat="47.27772" lon="4.91968">
        <ele>479.1</ele>
        <time>2013-01-25T11:06:07Z</time>
      </trkpt>
      <trkpt lat="47.27772" lon="4.91968">
        <ele>479.1</ele>
        <time>2013-01-25T11:06:18Z</time>
      </trkpt>
      <trkpt lat="47.27772" lon="4.91968">
        <ele>479.1</ele>
        <time>2013-01-25T11:06:29Z</time>
      </trkpt>
      <trkpt lat="47.27772" lon="4.91968">
        <ele>479.1</ele>
        <time>2013-01-25T11:06:40Z</time>
      </trkpt>
      <trkpt lat="47.27772" lon="4.91968">
        <ele>479.1</ele>
        <time>2013-01-25T11:06:51Z</time>
      </trkpt>
      <trkpt lat="47.27772" lon="4.91968">
        <ele>479.1</ele>
        <time>2013-01-25T11:07:02Z</time>
      </trkpt>
      <trkpt lat="47.27772" lon="4.91968">
        <ele>479.1</ele>
        <time>2013-01-25T11:07:13Z</time>
      </trkpt>
      <trkpt lat="47.27773" lon="4.91968">
        <ele>479.4</ele>
        <time>2013-01-25T11:07:24Z</time>
      </trkpt>
      <trkpt lat="47.27773" lon="4.91968">
        <ele>479.4</ele>
        <time>2013-01-25T11:07:35Z</time>
      </trkpt>
      <trkpt lat="47.27773" lon="4.91967">
        <ele>479.4</ele>
        <time>2013-01-25T11:07:46Z</time>
      </trkpt>
      <trkpt lat="47.27773" lon="4.91967">
        <ele>479.4</ele>
        <time>2013-01-25T11:07:57Z</time>
      </trkpt>
      <trkpt lat="47.27773" lon="4.91967">
        <ele>479.4</ele>
        <time>2013-01-25T11:08:08Z</time>
      </trkpt>
      <trkpt lat="47.27773" lon="4.91967">
        <ele>479.4</ele>
        <time>2013-01-25T11:08:19Z</time>
      </trkpt>
      <trkpt lat="47.27773" lon="4.91967">
        <ele>479.4</ele>
        <time>2013-01-25T11:08:30Z</time>
      </trkpt>
      <trkpt lat="47.27773" lon="4.91967">
        <ele>479.4</ele>
        <time>2013-01-25T11:08:41Z</time>
      </trkpt>
      <trkpt lat="47.27773" lon="4.91967">
        <ele>479.4</ele>
        <time>2013-01-25T11:08:52Z</time>
      </trkpt>
      <trkpt lat="47.27773" lon="4.91967">
        <ele>479.4</ele>
        <time>2013-01-25T11:09:03Z</time>
      </trkpt>
      <trkpt lat="47.27773" lon="4.91967">
        <ele>479.4</ele>
        <time>2013-01-25T11:09:14Z</time>
      </trkpt>
      <trkpt lat="47.27773" lon="4.91967">
        <ele>479.4</ele>
        <time>2013-01-25T11:09:25Z</time>
      </trkpt>
      <trkpt lat="47.27773" lon="4.91967">
        <ele>479.4</ele>
        <time>2013-01-25T11:09:36Z</time>
      </trkpt>
      <trkpt lat="47.27773" lon="4.91967">
        <ele>479.4</ele>
        <time>2013-01-25T11:09:47Z</time>
      </trkpt>
      <trkpt lat="47.27773" lon="4.91967">
        <ele>479.4</ele>
        <time>2013-01-25T11:09:58Z</time>
      </trkpt>
      <trkpt lat="47.27773" lon="4.91967">
        <ele>479.4</ele>
        <time>2013-01-25T11:10:09Z</time>
      </trkpt>
      <trkpt lat="47.27773" lon="4.91967">
        <ele>479.4</ele>
        <time>2013-01-25T11:10:20Z</time>
      </trkpt>
      <trkpt lat="47.27773" lon="4.91967">
        <ele>479.4</ele>
        <time>2013-01-25T11:10:31Z</time>
      </trkpt>
      <trkpt lat="47.27773" lon="4.91967">
        <ele>479.4</ele>
        <time>2013-01-25T11:10:42Z</time>
      </trkpt>
    </trkseg>
  </trk>
</gpx>